Time;durP1;ratioP1;P1;durP2;ratioP2;P2;SDS_P1;SDS_P2;PMS_P1;PMS_P2;Temp;Humidity;BMP_temperature;BMP_pressure;BME280_temperature;BME280_humidity;BME280_pressure;Samples;Min_cycle;Max_cycle;Signal;HPM_P1;HPM_P2
2021/12/25 00:00:19;;;;;;;34.53;19.55;;;;;;;;;;5076815;28;20406;-78
2021/12/25 00:02:46;;;;;;;36.08;19.70;;;;;;;;;;5075771;28;20405;-78
2021/12/25 00:05:14;;;;;;;44.88;21.38;;;;;;;;;;5076248;28;20032;-78
2021/12/25 00:07:40;;;;;;;35.35;19.00;;;;;;;;;;5076168;28;20497;-78
2021/12/25 00:10:07;;;;;;;41.88;24.40;;;;;;;;;;5075725;28;20059;-78
2021/12/25 00:12:33;;;;;;;55.95;28.80;;;;;;;;;;5076329;28;20032;-78
2021/12/25 00:15:00;;;;;;;46.22;27.48;;;;;;;;;;5076014;28;20028;-79
2021/12/25 00:17:26;;;;;;;43.58;24.88;;;;;;;;;;5075558;28;20489;-78
2021/12/25 00:19:56;;;;;;;37.83;21.05;;;;;;;;;;5075959;28;20035;-78
2021/12/25 00:22:22;;;;;;;52.58;26.85;;;;;;;;;;5075712;28;20039;-78
2021/12/25 00:24:49;;;;;;;48.97;23.88;;;;;;;;;;5075440;28;20469;-78
2021/12/25 00:29:58;;;;;;;57.15;30.27;;;;;;;;;;5075814;28;20049;-78
2021/12/25 00:34:51;;;;;;;57.58;30.73;;;;;;;;;;5075181;28;20024;-78
2021/12/25 00:37:17;;;;;;;74.40;40.03;;;;;;;;;;5075575;28;20054;-78
2021/12/25 00:39:43;;;;;;;66.13;35.33;;;;;;;;;;5075112;28;20048;-79
2021/12/25 00:42:11;;;;;;;86.75;39.88;;;;;;;;;;5075983;28;20083;-79
2021/12/25 00:44:37;;;;;;;69.75;36.97;;;;;;;;;;5075768;28;20024;-78
2021/12/25 00:47:04;;;;;;;62.15;33.72;;;;;;;;;;5075015;28;20125;-79
2021/12/25 00:49:30;;;;;;;75.63;41.38;;;;;;;;;;5075448;28;20484;-78
2021/12/25 00:51:57;;;;;;;82.53;44.35;;;;;;;;;;5075108;28;20095;-79
2021/12/25 00:54:23;;;;;;;74.88;39.97;;;;;;;;;;5057242;28;20043;-77
2021/12/25 00:56:50;;;;;;;83.05;39.85;;;;;;;;;;5075329;28;20358;-77
2021/12/25 00:59:16;;;;;;;101.32;46.90;;;;;;;;;;5074820;28;20489;-78
2021/12/25 01:01:42;;;;;;;45.65;23.73;;;;;;;;;;5074953;28;20120;-78
2021/12/25 01:04:09;;;;;;;32.53;17.17;;;;;;;;;;5075530;28;20521;-79
2021/12/25 01:06:35;;;;;;;54.15;27.98;;;;;;;;;;5075043;28;20024;-78
2021/12/25 01:09:01;;;;;;;54.80;31.98;;;;;;;;;;5075267;28;20036;-78
2021/12/25 01:11:30;;;;;;;49.47;24.55;;;;;;;;;;5075318;28;20095;-78
2021/12/25 01:14:04;;;;;;;34.13;17.90;;;;;;;;;;5075043;28;20451;-78
2021/12/25 01:24:51;;;;;;;44.38;25.00;;;;;;;;;;5074714;28;20017;-78
2021/12/25 01:35:42;;;;;;;48.22;24.95;;;;;;;;;;5074154;28;20024;-78
2021/12/25 01:48:54;;;;;;;35.15;20.85;;;;;;;;;;5032204;28;20072;-79
2021/12/25 01:51:21;;;;;;;36.75;21.48;;;;;;;;;;5057192;28;20033;-78
2021/12/25 01:53:47;;;;;;;33.42;18.05;;;;;;;;;;5074156;28;20032;-78
2021/12/25 01:56:15;;;;;;;35.92;19.42;;;;;;;;;;5073783;28;20385;-77
2021/12/25 01:58:41;;;;;;;35.58;18.08;;;;;;;;;;5074230;28;20469;-77
2021/12/25 02:01:08;;;;;;;36.20;17.35;;;;;;;;;;5074029;28;20107;-78
2021/12/25 02:03:36;;;;;;;34.58;17.67;;;;;;;;;;5073714;28;20047;-78
2021/12/25 02:06:04;;;;;;;34.25;16.10;;;;;;;;;;5073895;28;20066;-79
2021/12/25 02:08:30;;;;;;;37.15;21.15;;;;;;;;;;5073723;28;20020;-78
2021/12/25 02:10:56;;;;;;;35.55;19.85;;;;;;;;;;5073618;28;20427;-78
2021/12/25 02:13:23;;;;;;;34.90;17.75;;;;;;;;;;5055872;28;20020;-77
2021/12/25 02:15:52;;;;;;;41.03;19.48;;;;;;;;;;5073941;28;20028;-78
2021/12/25 02:18:27;;;;;;;36.42;20.52;;;;;;;;;;5073397;28;20025;-78
2021/12/25 02:21:18;;;;;;;38.28;20.75;;;;;;;;;;5073889;28;20040;-78
2021/12/25 02:23:43;;;;;;;35.85;18.17;;;;;;;;;;5072683;28;20032;-78
2021/12/25 02:26:09;;;;;;;42.53;24.25;;;;;;;;;;5073539;28;20431;-78
2021/12/25 02:28:36;;;;;;;40.25;18.95;;;;;;;;;;5073485;28;20413;-78
2021/12/25 02:31:04;;;;;;;39.75;19.98;;;;;;;;;;5072976;28;20074;-77
2021/12/25 02:33:30;;;;;;;35.47;18.27;;;;;;;;;;5073518;28;20025;-78
2021/12/25 02:35:57;;;;;;;31.15;18.15;;;;;;;;;;5073434;28;20052;-78
2021/12/25 02:38:24;;;;;;;28.02;15.73;;;;;;;;;;5072970;28;20050;-78
2021/12/25 02:40:50;;;;;;;23.75;13.88;;;;;;;;;;5073395;28;20025;-78
2021/12/25 02:43:17;;;;;;;28.80;16.65;;;;;;;;;;5073424;28;20036;-78
2021/12/25 02:45:43;;;;;;;26.25;15.80;;;;;;;;;;5072911;28;20108;-78
2021/12/25 02:48:11;;;;;;;28.70;17.08;;;;;;;;;;5073473;28;20047;-79
2021/12/25 02:50:38;;;;;;;39.30;19.13;;;;;;;;;;5073285;28;20078;-79
2021/12/25 02:53:05;;;;;;;43.10;19.45;;;;;;;;;;5072801;28;20048;-78
2021/12/25 02:55:31;;;;;;;39.42;20.08;;;;;;;;;;5073216;28;20028;-77
2021/12/25 02:57:58;;;;;;;41.60;21.63;;;;;;;;;;5072983;28;20091;-76
2021/12/25 03:00:26;;;;;;;40.42;21.70;;;;;;;;;;5073078;28;20423;-77
2021/12/25 03:02:52;;;;;;;44.97;22.60;;;;;;;;;;5072831;28;20566;-77
2021/12/25 03:05:19;;;;;;;45.63;24.25;;;;;;;;;;5073087;28;20386;-78
2021/12/25 03:07:45;;;;;;;38.22;21.25;;;;;;;;;;5073033;28;20050;-78
2021/12/25 03:10:13;;;;;;;39.13;21.67;;;;;;;;;;5073055;28;20115;-78
2021/12/25 03:12:53;;;;;;;44.63;25.73;;;;;;;;;;5072905;28;20461;-77
2021/12/25 03:15:28;;;;;;;62.67;25.73;;;;;;;;;;5073131;28;20048;-77
2021/12/25 03:17:56;;;;;;;52.80;27.33;;;;;;;;;;5073076;28;20063;-77
2021/12/25 03:20:22;;;;;;;45.53;23.45;;;;;;;;;;5072628;28;20028;-77
2021/12/25 03:22:48;;;;;;;46.13;24.70;;;;;;;;;;5072942;28;20029;-77
2021/12/25 03:25:15;;;;;;;44.38;22.60;;;;;;;;;;5072860;28;20033;-77
2021/12/25 03:27:42;;;;;;;37.22;18.30;;;;;;;;;;5072433;28;20031;-77
2021/12/25 03:30:10;;;;;;;39.05;20.02;;;;;;;;;;5072845;28;20021;-77
2021/12/25 03:32:36;;;;;;;36.70;16.95;;;;;;;;;;5073119;28;20021;-77
2021/12/25 03:35:03;;;;;;;35.95;17.05;;;;;;;;;;5072464;28;20032;-77
2021/12/25 03:37:29;;;;;;;27.27;15.52;;;;;;;;;;5073015;28;20087;-78
2021/12/25 03:39:55;;;;;;;27.90;14.70;;;;;;;;;;5072798;28;20056;-77
2021/12/25 03:42:21;;;;;;;27.52;13.40;;;;;;;;;;5072328;28;20024;-77
2021/12/25 03:44:47;;;;;;;27.13;14.18;;;;;;;;;;5072723;28;20036;-77
2021/12/25 03:47:26;;;;;;;27.52;14.85;;;;;;;;;;5072844;28;20397;-79
2021/12/25 03:58:11;;;;;;;27.50;12.25;;;;;;;;;;5072922;28;20081;-77
2021/12/25 04:00:40;;;;;;;24.17;12.98;;;;;;;;;;5073021;28;20419;-77
2021/12/25 04:03:10;;;;;;;19.27;11.90;;;;;;;;;;5071930;28;20036;-78
2021/12/25 04:05:39;;;;;;;24.95;11.98;;;;;;;;;;5072585;28;20491;-78
2021/12/25 04:08:08;;;;;;;31.25;13.40;;;;;;;;;;5072396;28;20028;-78
2021/12/25 04:10:39;;;;;;;43.47;20.88;;;;;;;;;;5074616;28;20048;-77
2021/12/25 04:13:07;;;;;;;40.47;21.33;;;;;;;;;;5076279;28;20024;-77
2021/12/25 04:15:33;;;;;;;33.28;18.35;;;;;;;;;;5058116;28;20104;-77
2021/12/25 04:18:00;;;;;;;33.25;18.48;;;;;;;;;;5075564;28;20034;-77
2021/12/25 04:20:27;;;;;;;38.45;20.92;;;;;;;;;;5076136;28;20028;-77
2021/12/25 04:25:27;;;;;;;47.60;24.73;;;;;;;;;;5075815;28;20055;-77
2021/12/25 04:27:56;;;;;;;34.63;18.48;;;;;;;;;;5076200;28;20026;-77
2021/12/25 04:30:33;;;;;;;27.58;15.88;;;;;;;;;;5075430;28;20020;-77
2021/12/25 05:03:29;;;;;;;46.58;24.90;;;;;;;;;;5075002;28;20059;-78
2021/12/25 05:05:48;;;;;;;60.35;27.38;;;;;;;;;;5073770;28;20035;-77
2021/12/25 05:08:14;;;;;;;54.53;30.23;;;;;;;;;;5075228;28;20451;-79
2021/12/25 05:10:40;;;;;;;63.65;31.55;;;;;;;;;;5075041;28;20465;-79
2021/12/25 05:13:07;;;;;;;62.25;32.85;;;;;;;;;;5056667;28;20107;-77
2021/12/25 05:15:33;;;;;;;85.35;38.30;;;;;;;;;;5074992;28;20016;-78
2021/12/25 05:17:59;;;;;;;79.25;38.35;;;;;;;;;;5074892;28;20093;-78
2021/12/25 05:20:25;;;;;;;61.90;31.52;;;;;;;;;;5074383;28;20469;-80
2021/12/25 05:22:51;;;;;;;45.50;24.48;;;;;;;;;;5074986;28;20037;-77
2021/12/25 05:25:18;;;;;;;42.25;20.73;;;;;;;;;;5074724;28;20487;-80
2021/12/25 05:27:46;;;;;;;29.20;14.88;;;;;;;;;;5074319;28;20033;-78
2021/12/25 05:30:12;;;;;;;26.05;13.50;;;;;;;;;;5074652;28;20017;-77
2021/12/25 05:32:38;;;;;;;25.00;12.90;;;;;;;;;;5074642;28;20508;-80
2021/12/25 05:35:05;;;;;;;21.50;12.18;;;;;;;;;;5074343;28;20028;-79
2021/12/25 05:37:31;;;;;;;24.33;12.88;;;;;;;;;;5074682;28;20036;-80
2021/12/25 05:39:57;;;;;;;28.27;14.02;;;;;;;;;;5074621;28;20032;-78
2021/12/25 05:42:23;;;;;;;27.52;14.77;;;;;;;;;;5073937;28;20039;-79
2021/12/25 05:44:50;;;;;;;36.20;15.57;;;;;;;;;;5074357;28;20021;-78
2021/12/25 05:47:16;;;;;;;37.00;18.15;;;;;;;;;;5073879;28;20016;-78
2021/12/25 05:49:43;;;;;;;34.97;17.88;;;;;;;;;;5074251;28;20099;-80
2021/12/25 05:52:09;;;;;;;31.48;17.25;;;;;;;;;;5074419;28;20035;-79
2021/12/25 05:54:35;;;;;;;30.95;15.40;;;;;;;;;;5073829;28;20465;-78
2021/12/25 05:57:02;;;;;;;31.83;17.60;;;;;;;;;;5074234;28;20366;-78
2021/12/25 05:59:28;;;;;;;43.67;19.48;;;;;;;;;;5074277;28;20020;-78
2021/12/25 06:01:54;;;;;;;31.63;16.63;;;;;;;;;;5073398;28;20051;-79
2021/12/25 06:04:20;;;;;;;40.30;20.25;;;;;;;;;;5073996;28;20050;-79
2021/12/25 06:06:46;;;;;;;33.80;17.98;;;;;;;;;;5074236;28;20463;-79
2021/12/25 06:09:13;;;;;;;36.13;19.40;;;;;;;;;;5073599;28;20017;-78
2021/12/25 06:11:39;;;;;;;43.40;21.67;;;;;;;;;;5073815;28;20020;-79
2021/12/25 06:14:11;;;;;;;70.63;36.70;;;;;;;;;;5073845;28;20441;-79
2021/12/25 06:16:38;;;;;;;66.67;39.57;;;;;;;;;;5073476;28;20476;-79
2021/12/25 06:19:05;;;;;;;66.35;34.20;;;;;;;;;;5073943;28;20265;-79
2021/12/25 06:21:32;;;;;;;77.30;38.10;;;;;;;;;;5073558;28;20366;-79
2021/12/25 06:24:01;;;;;;;60.90;31.35;;;;;;;;;;5073172;28;20357;-79
2021/12/25 06:26:27;;;;;;;57.92;26.88;;;;;;;;;;5073607;28;20013;-79
2021/12/25 06:28:54;;;;;;;45.65;26.27;;;;;;;;;;5073527;28;20052;-79
2021/12/25 06:31:20;;;;;;;48.45;25.55;;;;;;;;;;5073092;28;20074;-79
2021/12/25 06:33:46;;;;;;;42.50;21.48;;;;;;;;;;5073140;28;20429;-79
2021/12/25 06:36:12;;;;;;;49.65;24.85;;;;;;;;;;5073486;28;20029;-79
2021/12/25 06:38:40;;;;;;;98.15;47.78;;;;;;;;;;5073076;28;20546;-80
2021/12/25 06:41:07;;;;;;;86.93;42.58;;;;;;;;;;5073345;28;20103;-79
2021/12/25 06:43:34;;;;;;;72.97;37.97;;;;;;;;;;5072993;28;20049;-80
2021/12/25 06:46:00;;;;;;;77.63;38.90;;;;;;;;;;5073391;28;20075;-78
2021/12/25 06:48:27;;;;;;;85.70;41.58;;;;;;;;;;5073296;28;20431;-79
2021/12/25 06:50:53;;;;;;;96.85;54.88;;;;;;;;;;5072998;28;20362;-80
2021/12/25 06:53:19;;;;;;;86.13;54.15;;;;;;;;;;5073220;28;20050;-79
2021/12/25 06:55:46;;;;;;;165.27;82.20;;;;;;;;;;5073174;28;20024;-78
2021/12/25 06:58:12;;;;;;;104.63;55.97;;;;;;;;;;5072849;28;20025;-78
2021/12/25 07:00:39;;;;;;;87.15;53.55;;;;;;;;;;5073190;28;20023;-79
2021/12/25 07:03:05;;;;;;;128.20;69.43;;;;;;;;;;5073041;28;20131;-80
2021/12/25 07:05:31;;;;;;;140.65;71.18;;;;;;;;;;5072999;28;20029;-80
2021/12/25 07:07:57;;;;;;;111.43;60.03;;;;;;;;;;5073155;28;20082;-81
2021/12/25 07:10:24;;;;;;;121.90;57.63;;;;;;;;;;5073116;28;20024;-81
2021/12/25 07:12:53;;;;;;;100.03;49.53;;;;;;;;;;5072963;28;20100;-79
2021/12/25 07:15:19;;;;;;;88.18;45.13;;;;;;;;;;5073502;28;20457;-81
2021/12/25 07:17:45;;;;;;;104.40;49.03;;;;;;;;;;5073271;28;20078;-80
2021/12/25 07:20:12;;;;;;;139.27;64.72;;;;;;;;;;5072799;28;20025;-80
2021/12/25 07:22:38;;;;;;;144.45;73.60;;;;;;;;;;5072960;28;20393;-80
2021/12/25 07:25:06;;;;;;;198.10;100.93;;;;;;;;;;5073307;28;20037;-80
2021/12/25 07:27:32;;;;;;;257.23;126.15;;;;;;;;;;5072596;28;20024;-79
2021/12/25 07:29:58;;;;;;;230.40;116.18;;;;;;;;;;5055083;28;20032;-79
2021/12/25 07:32:25;;;;;;;185.45;100.30;;;;;;;;;;5073174;28;20028;-79
2021/12/25 07:34:51;;;;;;;184.63;92.65;;;;;;;;;;5054453;28;20020;-78
2021/12/25 07:37:18;;;;;;;173.50;82.20;;;;;;;;;;5072843;28;20411;-78
2021/12/25 07:39:44;;;;;;;147.32;79.43;;;;;;;;;;5072802;28;20021;-78
2021/12/25 07:42:11;;;;;;;137.10;72.72;;;;;;;;;;5072737;28;20381;-79
2021/12/25 07:44:37;;;;;;;139.18;75.45;;;;;;;;;;5074080;28;20033;-79
2021/12/25 07:47:08;;;;;;;140.45;71.85;;;;;;;;;;5075981;28;20024;-81
2021/12/25 07:49:34;;;;;;;104.78;49.22;;;;;;;;;;5076435;28;20040;-79
2021/12/25 07:52:01;;;;;;;73.50;38.20;;;;;;;;;;5076456;28;20016;-81
2021/12/25 07:54:27;;;;;;;67.43;32.40;;;;;;;;;;5076022;28;20101;-78
2021/12/25 07:56:54;;;;;;;52.72;29.27;;;;;;;;;;5076557;28;20366;-78
2021/12/25 07:59:21;;;;;;;54.25;27.95;;;;;;;;;;5076545;28;20013;-79
2021/12/25 08:01:48;;;;;;;52.63;28.58;;;;;;;;;;5075583;28;20068;-80
2021/12/25 08:04:17;;;;;;;53.70;30.17;;;;;;;;;;5076241;28;20439;-80
2021/12/25 08:06:44;;;;;;;59.97;31.15;;;;;;;;;;5076162;28;20025;-79
2021/12/25 08:09:10;;;;;;;50.30;26.55;;;;;;;;;;5075711;28;20074;-80
2021/12/25 08:11:36;;;;;;;56.40;31.65;;;;;;;;;;5076328;28;20021;-79
2021/12/25 08:14:03;;;;;;;76.82;39.67;;;;;;;;;;5058220;28;20101;-78
2021/12/25 08:16:29;;;;;;;95.30;56.08;;;;;;;;;;5075817;28;20036;-79
2021/12/25 08:18:55;;;;;;;101.93;58.10;;;;;;;;;;5076098;28;20369;-78
2021/12/25 08:21:21;;;;;;;97.68;51.13;;;;;;;;;;5075892;28;20461;-77
2021/12/25 08:23:49;;;;;;;82.78;43.78;;;;;;;;;;5075470;28;20138;-78
2021/12/25 08:26:15;;;;;;;104.82;58.60;;;;;;;;;;5075943;28;20035;-78
2021/12/25 08:28:41;;;;;;;138.05;72.70;;;;;;;;;;5075832;28;20054;-78
2021/12/25 08:31:08;;;;;;;103.72;57.70;;;;;;;;;;5075533;28;20067;-78
2021/12/25 08:33:34;;;;;;;117.30;63.13;;;;;;;;;;5075948;28;20028;-79
2021/12/25 08:36:00;;;;;;;112.75;62.20;;;;;;;;;;5075666;28;20051;-79
2021/12/25 08:38:26;;;;;;;77.68;44.42;;;;;;;;;;5075879;28;20383;-79
2021/12/25 08:40:54;;;;;;;80.50;47.15;;;;;;;;;;5076302;28;20020;-79
2021/12/25 08:43:24;;;;;;;81.65;51.83;;;;;;;;;;5075221;28;20072;-78
2021/12/25 08:46:01;;;;;;;98.68;56.42;;;;;;;;;;5075670;28;20025;-79
2021/12/25 08:48:27;;;;;;;93.70;53.08;;;;;;;;;;5075685;28;20025;-77
2021/12/25 08:50:55;;;;;;;72.18;47.35;;;;;;;;;;5075403;28;20024;-79
2021/12/25 08:53:22;;;;;;;77.57;47.40;;;;;;;;;;5075705;28;20028;-77
2021/12/25 08:55:49;;;;;;;88.22;52.28;;;;;;;;;;5075111;28;20468;-77
2021/12/25 08:58:16;;;;;;;95.80;52.88;;;;;;;;;;5074995;28;20036;-76
2021/12/25 09:00:42;;;;;;;77.28;42.95;;;;;;;;;;5057360;28;20389;-77
2021/12/25 09:03:09;;;;;;;76.30;41.90;;;;;;;;;;5075021;28;20411;-78
2021/12/25 09:05:35;;;;;;;69.95;40.05;;;;;;;;;;5074769;28;20048;-78
2021/12/25 09:08:03;;;;;;;83.50;46.40;;;;;;;;;;5075153;28;20056;-78
2021/12/25 09:10:29;;;;;;;60.00;33.00;;;;;;;;;;5075545;28;20092;-77
2021/12/25 09:12:56;;;;;;;55.70;31.58;;;;;;;;;;5074684;28;20515;-77
2021/12/25 09:15:22;;;;;;;62.22;33.67;;;;;;;;;;5074992;28;20147;-77
2021/12/25 09:17:49;;;;;;;65.30;37.08;;;;;;;;;;5074944;28;20039;-78
2021/12/25 09:20:18;;;;;;;61.95;34.80;;;;;;;;;;5074508;28;20028;-78
2021/12/25 09:22:44;;;;;;;56.58;30.70;;;;;;;;;;5074853;28;20133;-78
2021/12/25 09:25:11;;;;;;;33.70;20.13;;;;;;;;;;5074861;28;20035;-80
2021/12/25 09:27:37;;;;;;;59.95;30.00;;;;;;;;;;5074403;28;20021;-78
2021/12/25 09:30:04;;;;;;;37.78;21.05;;;;;;;;;;5056832;28;20025;-79
2021/12/25 09:32:30;;;;;;;29.13;15.50;;;;;;;;;;5074454;28;20024;-77
2021/12/25 09:35:00;;;;;;;33.72;20.42;;;;;;;;;;5074891;28;20020;-80
2021/12/25 09:37:26;;;;;;;38.92;24.20;;;;;;;;;;5057405;28;20494;-78
2021/12/25 09:39:52;;;;;;;36.53;21.58;;;;;;;;;;5074396;28;20051;-78
2021/12/25 09:42:21;;;;;;;40.17;25.40;;;;;;;;;;5074415;28;20469;-77
2021/12/25 09:44:48;;;;;;;36.45;22.40;;;;;;;;;;5074520;28;20032;-78
2021/12/25 09:47:14;;;;;;;40.35;23.50;;;;;;;;;;5073945;28;20099;-78
2021/12/25 09:49:40;;;;;;;39.33;22.95;;;;;;;;;;5056378;28;20435;-77
2021/12/25 09:52:06;;;;;;;50.63;31.63;;;;;;;;;;5074182;28;20029;-76
2021/12/25 09:54:33;;;;;;;47.78;25.63;;;;;;;;;;5073742;28;20111;-77
2021/12/25 09:56:59;;;;;;;44.22;22.63;;;;;;;;;;5074237;28;20017;-77
2021/12/25 09:59:26;;;;;;;42.50;25.27;;;;;;;;;;5074072;28;20024;-77
2021/12/25 10:01:53;;;;;;;55.22;33.65;;;;;;;;;;5073550;28;20040;-77
2021/12/25 10:04:40;;;;;;;40.90;24.50;;;;;;;;;;5074422;28;20377;-78
2021/12/25 10:07:12;;;;;;;44.50;25.40;;;;;;;;;;5073222;28;20105;-80
2021/12/25 10:09:38;;;;;;;31.77;19.42;;;;;;;;;;5073643;28;20491;-77
2021/12/25 10:12:08;;;;;;;30.88;18.70;;;;;;;;;;5073969;28;20028;-77
2021/12/25 10:14:35;;;;;;;36.00;19.75;;;;;;;;;;5073575;28;20032;-77
2021/12/25 10:17:19;;;;;;;26.38;17.08;;;;;;;;;;5073858;28;20029;-77
2021/12/25 10:20:03;;;;;;;26.08;14.63;;;;;;;;;;5073834;28;20074;-76
2021/12/25 10:22:30;;;;;;;54.33;32.05;;;;;;;;;;5073309;28;20021;-77
2021/12/25 10:25:10;;;;;;;33.88;18.45;;;;;;;;;;5073646;28;20085;-77
2021/12/25 10:27:37;;;;;;;38.35;21.50;;;;;;;;;;5073773;28;20017;-77
2021/12/25 10:30:06;;;;;;;47.55;27.98;;;;;;;;;;5073311;28;20024;-78
2021/12/25 10:32:37;;;;;;;28.40;16.95;;;;;;;;;;5073657;28;20048;-76
2021/12/25 10:35:12;;;;;;;33.03;20.58;;;;;;;;;;5073823;28;20024;-76
2021/12/25 10:37:40;;;;;;;36.83;22.90;;;;;;;;;;5073204;28;20020;-77
2021/12/25 10:41:58;;;;;;;31.55;20.27;;;;;;;;;;5111636;27;20396;-77
2021/12/25 10:44:26;;;;;;;27.85;19.40;;;;;;;;;;5110791;28;20426;-77
2021/12/25 10:47:09;;;;;;;39.15;23.27;;;;;;;;;;5112011;27;20385;-78
2021/12/25 10:49:43;;;;;;;30.45;17.05;;;;;;;;;;5111826;28;20031;-78
2021/12/25 10:52:12;;;;;;;29.15;19.40;;;;;;;;;;5111271;28;20380;-78
2021/12/25 10:54:41;;;;;;;28.45;17.52;;;;;;;;;;5111147;28;20024;-78
2021/12/25 10:57:07;;;;;;;30.67;17.92;;;;;;;;;;5110816;28;20026;-78
2021/12/25 10:59:47;;;;;;;35.10;21.45;;;;;;;;;;5110977;28;20137;-77
2021/12/25 11:02:47;;;;;;;34.58;22.48;;;;;;;;;;5111744;27;20388;-78
2021/12/25 11:09:10;;;;;;;50.38;30.90;;;;;;;;;;5111216;27;20396;-78
2021/12/25 11:11:36;;;;;;;41.25;24.58;;;;;;;;;;5110668;28;20031;-76
2021/12/25 11:14:02;;;;;;;29.27;18.00;;;;;;;;;;5110960;28;20016;-76
2021/12/25 11:18:06;;;;;;;23.75;16.42;;;;;;;;;;5131315;27;20309;-78
2021/12/25 11:20:34;;;;;;;31.40;21.08;;;;;;;;;;5111212;28;20039;-78
2021/12/25 11:27:02;;;;;;;35.40;23.75;;;;;;;;;;5110810;27;20381;-78
2021/12/25 11:29:29;;;;;;;49.88;30.98;;;;;;;;;;5111439;28;20059;-78
2021/12/25 11:31:56;;;;;;;49.95;29.67;;;;;;;;;;5111069;28;20068;-77
2021/12/25 11:34:23;;;;;;;38.92;26.42;;;;;;;;;;5111059;28;20077;-79
2021/12/25 11:39:38;;;;;;;47.67;28.48;;;;;;;;;;5111013;27;20392;-79
2021/12/25 11:42:07;;;;;;;37.08;23.30;;;;;;;;;;5111176;28;20036;-79
2021/12/25 11:46:45;;;;;;;24.55;16.00;;;;;;;;;;5111390;27;20400;-78
2021/12/25 11:51:30;;;;;;;25.95;15.88;;;;;;;;;;5091898;27;20481;-78
2021/12/25 11:56:48;;;;;;;25.63;14.30;;;;;;;;;;5090638;28;20350;-77
2021/12/25 11:59:19;;;;;;;17.77;12.00;;;;;;;;;;5090851;28;20035;-77
2021/12/25 12:01:48;;;;;;;15.63;10.00;;;;;;;;;;5090345;28;20032;-78
2021/12/25 12:06:06;;;;;;;15.52;8.80;;;;;;;;;;5111515;27;20123;-78
2021/12/25 12:14:22;;;;;;;21.02;11.65;;;;;;;;;;5111353;27;20397;-79
2021/12/25 12:16:50;;;;;;;17.80;11.15;;;;;;;;;;5111297;28;20433;-77
2021/12/25 12:19:33;;;;;;;17.55;11.23;;;;;;;;;;5111137;28;20148;-77
2021/12/25 12:22:00;;;;;;;25.95;16.38;;;;;;;;;;5110874;28;20028;-79
2021/12/25 12:27:03;;;;;;;29.90;15.13;;;;;;;;;;5110896;28;20059;-77
2021/12/25 12:29:38;;;;;;;166.73;86.32;;;;;;;;;;5110505;28;20020;-78
2021/12/25 12:33:02;;;;;;;36.00;22.35;;;;;;;;;;5111736;27;20434;-78
2021/12/25 12:35:35;;;;;;;21.45;13.13;;;;;;;;;;5110793;28;20040;-79
2021/12/25 12:39:14;;;;;;;27.50;16.75;;;;;;;;;;5111711;27;20396;-79
2021/12/25 12:41:49;;;;;;;27.80;16.88;;;;;;;;;;5111647;28;20086;-79
2021/12/25 12:44:17;;;;;;;18.67;12.23;;;;;;;;;;5110720;28;20073;-78
2021/12/25 12:49:53;;;;;;;23.75;16.40;;;;;;;;;;5070070;28;20400;-78
2021/12/25 12:52:24;;;;;;;19.33;13.02;;;;;;;;;;5069491;28;20067;-78
2021/12/25 12:54:52;;;;;;;28.80;17.27;;;;;;;;;;5070566;28;20027;-78
2021/12/25 12:57:23;;;;;;;30.17;17.92;;;;;;;;;;5070404;28;20025;-78
2021/12/25 12:59:56;;;;;;;25.02;17.08;;;;;;;;;;5070612;28;20029;-79
2021/12/25 13:02:23;;;;;;;21.33;14.90;;;;;;;;;;5070411;28;20481;-80
2021/12/25 13:04:52;;;;;;;40.28;26.70;;;;;;;;;;5070372;28;20109;-81
2021/12/25 13:08:19;;;;;;;25.38;15.82;;;;;;;;;;5112153;27;20396;-80
2021/12/25 13:11:22;;;;;;;54.28;36.28;;;;;;;;;;5111596;27;20396;-79
2021/12/25 13:14:11;;;;;;;26.90;16.23;;;;;;;;;;5111254;27;20389;-80
2021/12/25 13:16:39;;;;;;;19.73;13.02;;;;;;;;;;5111102;28;20042;-80
2021/12/25 13:19:05;;;;;;;37.78;23.75;;;;;;;;;;5110743;28;20080;-79
2021/12/25 13:21:33;;;;;;;29.50;17.77;;;;;;;;;;5111081;28;20046;-77
2021/12/25 13:26:20;;;;;;;38.95;24.63;;;;;;;;;;5110980;27;20901;-77
2021/12/25 13:29:28;;;;;;;34.72;22.55;;;;;;;;;;5111687;27;20400;-77
2021/12/25 13:32:50;;;;;;;26.30;18.02;;;;;;;;;;5110883;27;20116;-78
2021/12/25 13:38:02;;;;;;;27.67;18.42;;;;;;;;;;5111861;27;20392;-79
2021/12/25 13:40:29;;;;;;;24.23;15.20;;;;;;;;;;5110798;28;20415;-80
2021/12/25 13:42:55;;;;;;;35.08;19.13;;;;;;;;;;5111356;28;20028;-79
2021/12/25 13:45:22;;;;;;;27.67;18.27;;;;;;;;;;5111210;28;20016;-78
2021/12/25 13:48:07;;;;;;;51.60;32.67;;;;;;;;;;5111832;27;20377;-81
2021/12/25 13:50:34;;;;;;;49.22;30.77;;;;;;;;;;5111177;28;20031;-80
2021/12/25 13:53:05;;;;;;;59.85;43.33;;;;;;;;;;5110612;28;20023;-80
2021/12/25 13:55:34;;;;;;;40.22;28.10;;;;;;;;;;5111111;28;20024;-79
2021/12/25 13:58:01;;;;;;;62.33;42.15;;;;;;;;;;5110870;28;20027;-80
2021/12/25 14:00:35;;;;;;;39.83;27.65;;;;;;;;;;5110542;28;20028;-79
2021/12/25 14:06:39;;;;;;;42.60;27.00;;;;;;;;;;5111193;27;20395;-81
2021/12/25 14:09:06;;;;;;;26.30;17.70;;;;;;;;;;5111488;28;20095;-80
2021/12/25 14:11:32;;;;;;;38.38;25.90;;;;;;;;;;5111451;28;20020;-80
2021/12/25 14:15:18;;;;;;;54.60;35.45;;;;;;;;;;5110902;27;20404;-79
2021/12/25 14:20:22;;;;;;;143.73;91.75;;;;;;;;;;5111632;27;20389;-78
2021/12/25 14:24:45;;;;;;;89.65;59.00;;;;;;;;;;5131939;27;20495;-79
2021/12/25 14:27:12;;;;;;;61.35;43.38;;;;;;;;;;5111131;28;20034;-80
2021/12/25 14:29:39;;;;;;;62.72;43.80;;;;;;;;;;5110777;28;20391;-80
2021/12/25 14:33:32;;;;;;;112.15;62.20;;;;;;;;;;5111188;27;20400;-80
2021/12/25 14:35:59;;;;;;;155.02;80.28;;;;;;;;;;5109830;28;20430;-79
2021/12/25 14:40:49;;;;;;;106.75;64.63;;;;;;;;;;5111320;27;20397;-80
2021/12/25 14:45:07;;;;;;;134.18;76.97;;;;;;;;;;5111549;27;20393;-80
2021/12/25 14:47:33;;;;;;;120.25;77.65;;;;;;;;;;5111390;28;20038;-80
2021/12/25 14:49:59;;;;;;;82.45;53.25;;;;;;;;;;5110685;28;20401;-81
2021/12/25 14:52:25;;;;;;;85.13;53.60;;;;;;;;;;5111130;28;20028;-79
2021/12/25 14:54:52;;;;;;;74.43;46.28;;;;;;;;;;5109682;28;20031;-79
2021/12/25 14:57:25;;;;;;;90.47;55.92;;;;;;;;;;5110505;28;20024;-78
2021/12/25 14:59:51;;;;;;;122.85;76.65;;;;;;;;;;5110865;28;20059;-79
2021/12/25 15:02:19;;;;;;;116.93;72.05;;;;;;;;;;5111100;28;20031;-80
2021/12/25 15:04:48;;;;;;;140.10;83.43;;;;;;;;;;5110281;28;20500;-80
2021/12/25 15:07:14;;;;;;;166.18;98.80;;;;;;;;;;5110635;28;20028;-80
2021/12/25 15:09:48;;;;;;;169.45;103.72;;;;;;;;;;5110912;28;20024;-79
2021/12/25 15:12:27;;;;;;;138.40;89.53;;;;;;;;;;5110114;28;20027;-79
2021/12/25 15:15:09;;;;;;;147.30;91.40;;;;;;;;;;5110833;28;20031;-79
2021/12/25 15:17:36;;;;;;;144.98;92.43;;;;;;;;;;5110203;28;20526;-79
2021/12/25 15:20:07;;;;;;;162.43;97.53;;;;;;;;;;5110403;28;20421;-79
2021/12/25 15:22:33;;;;;;;209.40;119.50;;;;;;;;;;5110697;28;20388;-79
2021/12/25 15:25:01;;;;;;;156.63;100.53;;;;;;;;;;5110228;28;20383;-79
2021/12/25 15:27:29;;;;;;;155.52;95.20;;;;;;;;;;5110409;28;20020;-78
2021/12/25 15:29:57;;;;;;;146.43;92.85;;;;;;;;;;5110339;28;20058;-79
2021/12/25 15:32:23;;;;;;;165.50;104.72;;;;;;;;;;5109845;28;20020;-78
2021/12/25 15:34:54;;;;;;;157.85;92.68;;;;;;;;;;5108899;28;20059;-79
2021/12/25 15:37:31;;;;;;;154.40;95.22;;;;;;;;;;5110315;28;20027;-78
2021/12/25 15:39:58;;;;;;;205.45;122.32;;;;;;;;;;5109933;28;20024;-79
2021/12/25 15:42:29;;;;;;;307.35;196.30;;;;;;;;;;5110077;28;20020;-79
2021/12/25 15:44:56;;;;;;;577.10;280.63;;;;;;;;;;5109876;28;20044;-79
2021/12/25 15:47:22;;;;;;;469.13;261.08;;;;;;;;;;5109652;28;20020;-79
2021/12/25 15:49:48;;;;;;;405.60;240.40;;;;;;;;;;5110031;28;20024;-81
2021/12/25 15:52:15;;;;;;;298.02;194.23;;;;;;;;;;5108229;28;20031;-79
2021/12/25 15:54:42;;;;;;;351.13;212.27;;;;;;;;;;5106213;28;20047;-78
2021/12/25 15:57:10;;;;;;;319.88;204.85;;;;;;;;;;5096229;28;20020;-78
2021/12/25 15:59:37;;;;;;;185.93;155.55;;;;;;;;;;5095562;28;20028;-79
2021/12/25 16:02:04;;;;;;;158.43;142.13;;;;;;;;;;5096087;28;20028;-79
2021/12/25 16:04:30;;;;;;;121.50;112.18;;;;;;;;;;5096295;28;20093;-78
2021/12/25 16:06:57;;;;;;;119.53;110.30;;;;;;;;;;5095839;28;20099;-79
2021/12/25 16:09:24;;;;;;;117.53;108.82;;;;;;;;;;5096542;28;20024;-79
2021/12/25 16:11:51;;;;;;;127.30;117.80;;;;;;;;;;5096865;28;20536;-79
2021/12/25 16:14:17;;;;;;;123.15;114.03;;;;;;;;;;5096955;28;20055;-79
2021/12/25 16:16:43;;;;;;;124.25;115.00;;;;;;;;;;5096813;28;20016;-79
2021/12/25 16:19:10;;;;;;;127.70;118.10;;;;;;;;;;5096999;28;20095;-80
2021/12/25 16:21:36;;;;;;;125.60;116.10;;;;;;;;;;5095687;28;20103;-78
2021/12/25 16:24:05;;;;;;;119.82;110.97;;;;;;;;;;5094729;28;20046;-78
2021/12/25 16:26:32;;;;;;;123.13;113.85;;;;;;;;;;5095978;28;20038;-78
2021/12/25 16:28:58;;;;;;;336.58;215.27;;;;;;;;;;5095351;28;20534;-79
2021/12/25 16:31:25;;;;;;;157.98;141.68;;;;;;;;;;5095786;28;20016;-79